Time;durP1;ratioP1;P1;durP2;ratioP2;P2;SDS_P1;SDS_P2;PMS_P1;PMS_P2;Temp;Humidity;BMP_temperature;BMP_pressure;BME280_temperature;BME280_humidity;BME280_pressure;Samples;Min_cycle;Max_cycle;Signal;HPM_P1;HPM_P2
2023/07/24 00:02:05;;;;;;;40.70;20.93;;;25.70;78.90;;;;;;4957132;28;20413;-85
2023/07/24 00:04:31;;;;;;;22.50;19.08;;;25.60;79.10;;;;;;4965220;28;20030;-85
2023/07/24 00:06:57;;;;;;;25.25;19.38;;;25.60;79.40;;;;;;4967537;28;20501;-85
2023/07/24 00:09:23;;;;;;;24.23;20.00;;;25.60;79.40;;;;;;4962407;28;20122;-85
2023/07/24 00:11:49;;;;;;;27.33;20.42;;;25.60;79.50;;;;;;4955135;28;20028;-85
2023/07/24 00:14:16;;;;;;;26.00;20.63;;;25.50;79.50;;;;;;4963948;28;20118;-85
2023/07/24 00:16:41;;;;;;;28.05;20.00;;;25.50;79.30;;;;;;4957369;28;20058;-84
2023/07/24 00:19:07;;;;;;;26.47;21.90;;;25.50;79.30;;;;;;4960432;28;20498;-84
2023/07/24 00:21:33;;;;;;;26.03;21.40;;;25.40;79.70;;;;;;4968857;28;20099;-85
2023/07/24 00:23:59;;;;;;;25.60;20.30;;;25.40;80.10;;;;;;4964023;28;20041;-85
2023/07/24 00:26:25;;;;;;;30.37;23.50;;;25.30;80.40;;;;;;4965757;28;20110;-85
2023/07/24 00:28:51;;;;;;;32.93;22.73;;;25.30;80.70;;;;;;4959542;28;20116;-84
2023/07/24 00:31:16;;;;;;;30.73;24.53;;;25.30;81.00;;;;;;4967316;28;20022;-84
2023/07/24 00:33:43;;;;;;;28.52;23.30;;;25.20;81.00;;;;;;4967373;28;20034;-84
2023/07/24 00:36:11;;;;;;;35.25;23.90;;;25.20;81.30;;;;;;4965551;28;20027;-84
2023/07/24 00:38:36;;;;;;;29.10;23.00;;;25.20;81.50;;;;;;4968427;28;20421;-84
2023/07/24 00:41:02;;;;;;;30.40;24.80;;;25.20;81.50;;;;;;4962965;28;20023;-84
2023/07/24 00:43:28;;;;;;;30.50;24.27;;;25.20;81.40;;;;;;4961639;28;20070;-84
2023/07/24 00:45:55;;;;;;;26.80;23.55;;;25.10;81.70;;;;;;4971968;28;20459;-84
2023/07/24 00:48:21;;;;;;;26.80;22.25;;;25.10;81.70;;;;;;4968336;28;20058;-85
2023/07/24 00:50:48;;;;;;;30.13;23.63;;;25.10;81.70;;;;;;4959745;28;20493;-84
2023/07/24 00:53:16;;;;;;;38.03;23.90;;;25.10;81.70;;;;;;4957797;28;20414;-84
2023/07/24 00:55:42;;;;;;;31.98;23.77;;;25.00;81.80;;;;;;4971633;28;20501;-84
2023/07/24 00:58:11;;;;;;;30.37;23.13;;;25.10;81.90;;;;;;4967432;28;20505;-84
2023/07/24 01:00:40;;;;;;;32.63;24.15;;;25.10;81.60;;;;;;4963421;28;20098;-84
2023/07/24 01:03:08;;;;;;;25.50;22.73;;;25.10;81.60;;;;;;4956607;28;20118;-84
2023/07/24 01:05:33;;;;;;;30.03;23.90;;;25.00;81.60;;;;;;4968421;28;20023;-84
2023/07/24 01:07:59;;;;;;;30.03;23.60;;;25.00;81.70;;;;;;4960931;28;20274;-84
2023/07/24 01:10:25;;;;;;;30.67;23.97;;;25.00;81.90;;;;;;4958225;28;20023;-84
2023/07/24 01:12:52;;;;;;;32.50;24.63;;;25.00;82.10;;;;;;4967838;28;20515;-84
2023/07/24 01:15:33;;;;;;;28.50;24.45;;;25.00;82.10;;;;;;4958805;28;20027;-84
2023/07/24 01:18:14;;;;;;;29.45;23.70;;;24.90;82.30;;;;;;4941518;29;20036;-85
2023/07/24 01:20:50;;;;;;;32.28;25.02;;;24.90;82.10;;;;;;4951082;29;20031;-85
2023/07/24 01:23:32;;;;;;;30.58;24.92;;;24.90;81.90;;;;;;4954275;29;20037;-84
2023/07/24 01:26:02;;;;;;;31.98;24.77;;;24.90;82.60;;;;;;4954345;29;20106;-85
2023/07/24 01:28:28;;;;;;;30.58;25.33;;;24.90;82.60;;;;;;4954094;29;20086;-85
2023/07/24 01:30:55;;;;;;;31.00;25.10;;;24.90;82.50;;;;;;4953742;28;20129;-85
2023/07/24 01:33:22;;;;;;;34.67;25.77;;;24.90;82.50;;;;;;4954002;29;20093;-85
2023/07/24 01:35:55;;;;;;;33.75;27.42;;;24.80;82.50;;;;;;4954045;29;20023;-85
2023/07/24 01:38:22;;;;;;;35.53;27.70;;;24.80;81.90;;;;;;4955325;28;20043;-85
2023/07/24 01:40:48;;;;;;;36.63;28.70;;;24.80;82.50;;;;;;4955165;28;20030;-85
2023/07/24 01:43:14;;;;;;;35.05;27.15;;;24.80;82.70;;;;;;4953948;28;20170;-84
2023/07/24 01:45:40;;;;;;;36.67;28.85;;;24.70;82.70;;;;;;4953829;28;20027;-85
2023/07/24 01:48:06;;;;;;;36.73;28.73;;;24.70;82.90;;;;;;4953865;29;20038;-85
2023/07/24 01:50:32;;;;;;;31.13;27.13;;;24.70;83.10;;;;;;4953613;28;20401;-85
2023/07/24 01:52:58;;;;;;;36.72;27.98;;;24.60;83.00;;;;;;4953801;28;20525;-85
2023/07/24 01:55:24;;;;;;;40.03;28.43;;;24.60;83.30;;;;;;4960228;28;20031;-85
2023/07/24 01:57:50;;;;;;;33.70;27.83;;;24.60;83.20;;;;;;4966403;28;20031;-85
2023/07/24 02:00:16;;;;;;;37.10;28.97;;;24.50;83.20;;;;;;4969792;28;20031;-84
2023/07/24 02:02:41;;;;;;;33.87;29.03;;;24.50;83.10;;;;;;4959063;28;20121;-85
2023/07/24 02:05:08;;;;;;;38.60;28.17;;;24.40;83.40;;;;;;4969073;28;20031;-84
2023/07/24 02:07:34;;;;;;;40.65;30.13;;;24.40;83.60;;;;;;4957356;28;20034;-84
2023/07/24 02:09:59;;;;;;;39.53;30.77;;;24.30;83.90;;;;;;4957677;28;20506;-84
2023/07/24 02:12:25;;;;;;;39.73;30.93;;;24.30;83.90;;;;;;4954235;28;20027;-84
2023/07/24 02:14:52;;;;;;;39.20;29.70;;;24.20;83.90;;;;;;4966492;28;20122;-84
2023/07/24 02:17:18;;;;;;;38.47;30.08;;;24.30;84.20;;;;;;4970516;28;20062;-84
2023/07/24 02:19:44;;;;;;;33.58;29.08;;;24.20;84.00;;;;;;4958747;28;20086;-85
2023/07/24 02:22:10;;;;;;;33.00;26.88;;;24.20;83.90;;;;;;4966801;28;20102;-85
2023/07/24 02:24:36;;;;;;;33.53;28.15;;;24.20;84.10;;;;;;4959067;28;20031;-84
2023/07/24 02:27:02;;;;;;;30.83;26.43;;;24.10;83.90;;;;;;4958340;28;20031;-84
2023/07/24 02:29:31;;;;;;;34.72;26.90;;;24.10;83.90;;;;;;4962519;28;20026;-83
2023/07/24 02:31:57;;;;;;;35.60;26.55;;;24.20;84.00;;;;;;4944586;28;20019;-83
2023/07/24 02:34:26;;;;;;;;;;;24.10;83.90;;;;;;4969632;28;20054;-84
2023/07/24 02:36:54;;;;;;;;;;;24.10;83.90;;;;;;4973942;28;19911;-84
2023/07/24 02:39:20;;;;;;;37.95;26.50;;;24.00;83.80;;;;;;4981794;28;19921;-84
2023/07/24 02:41:48;;;;;;;33.67;27.30;;;24.00;84.30;;;;;;4958935;28;20035;-84
2023/07/24 02:44:14;;;;;;;31.90;26.10;;;23.90;84.40;;;;;;4953656;28;20034;-84
2023/07/24 02:46:40;;;;;;;30.53;25.63;;;23.90;84.50;;;;;;4963456;28;20035;-84
2023/07/24 02:49:07;;;;;;;38.30;28.73;;;23.90;84.40;;;;;;4964355;28;20381;-84
2023/07/24 02:51:32;;;;;;;33.72;26.83;;;23.90;84.50;;;;;;4953593;28;20158;-84
2023/07/24 02:53:58;;;;;;;30.20;25.30;;;23.90;84.40;;;;;;4953767;29;20118;-83
2023/07/24 02:56:24;;;;;;;31.03;24.80;;;23.80;84.50;;;;;;4952685;28;20023;-84
2023/07/24 02:58:50;;;;;;;29.67;25.07;;;23.80;84.70;;;;;;4952474;29;20037;-84
2023/07/24 03:01:16;;;;;;;36.50;24.60;;;23.80;84.80;;;;;;4953244;28;20375;-84
2023/07/24 03:03:42;;;;;;;29.70;24.40;;;23.80;84.70;;;;;;4964931;28;20035;-84
2023/07/24 03:06:08;;;;;;;30.70;24.87;;;23.80;84.70;;;;;;4962098;28;20078;-84
2023/07/24 03:08:34;;;;;;;29.43;23.93;;;23.80;85.10;;;;;;4962032;28;20277;-84
2023/07/24 03:11:02;;;;;;;28.87;23.03;;;23.80;84.60;;;;;;4956621;28;20035;-84
2023/07/24 03:13:28;;;;;;;29.65;22.42;;;23.80;84.50;;;;;;4964651;28;20027;-84
2023/07/24 03:15:55;;;;;;;32.93;25.43;;;23.80;84.70;;;;;;4952037;29;20564;-84
2023/07/24 03:18:22;;;;;;;29.63;24.48;;;23.80;84.50;;;;;;4952350;28;20499;-84
2023/07/24 03:20:47;;;;;;;31.85;24.83;;;23.80;84.50;;;;;;4933074;29;20027;-84
2023/07/24 03:23:13;;;;;;;32.10;24.40;;;23.80;84.40;;;;;;4933226;29;20032;-84
2023/07/24 03:25:39;;;;;;;29.30;23.83;;;23.80;84.70;;;;;;4940968;28;20069;-84
2023/07/24 03:28:05;;;;;;;32.53;25.37;;;23.80;84.90;;;;;;4963841;28;20318;-84
2023/07/24 03:30:31;;;;;;;33.63;25.97;;;23.80;85.00;;;;;;4971347;28;20074;-84
2023/07/24 03:32:57;;;;;;;31.33;25.43;;;23.80;85.30;;;;;;4982383;28;20041;-84
2023/07/24 03:35:23;;;;;;;34.10;26.35;;;23.80;85.10;;;;;;4969134;28;20440;-84
2023/07/24 03:37:50;;;;;;;30.85;25.25;;;23.80;85.40;;;;;;4961749;28;20034;-84
2023/07/24 03:40:16;;;;;;;38.57;25.17;;;23.80;85.60;;;;;;4953686;28;20081;-84
2023/07/24 03:42:42;;;;;;;37.10;27.20;;;23.80;85.40;;;;;;4939735;29;20035;-84
2023/07/24 03:45:08;;;;;;;32.00;25.53;;;23.80;85.50;;;;;;4969191;28;20038;-84
2023/07/24 03:47:34;;;;;;;36.38;25.80;;;23.80;85.70;;;;;;4968367;28;20023;-84
2023/07/24 03:49:59;;;;;;;39.07;27.57;;;23.70;85.80;;;;;;4958050;28;20161;-84
2023/07/24 03:52:25;;;;;;;39.77;25.80;;;23.70;86.00;;;;;;4965663;28;20054;-81
2023/07/24 03:54:52;;;;;;;35.73;26.87;;;23.70;86.10;;;;;;4960502;28;20035;-81
2023/07/24 03:57:18;;;;;;;37.35;27.15;;;23.60;86.00;;;;;;4964469;28;20118;-83
2023/07/24 03:59:43;;;;;;;36.42;27.15;;;23.60;86.20;;;;;;4979891;28;20034;-84
2023/07/24 04:02:10;;;;;;;34.63;25.07;;;23.60;86.30;;;;;;4975507;28;20031;-83
2023/07/24 04:04:36;;;;;;;37.17;27.77;;;23.60;86.60;;;;;;4974972;28;20037;-83
2023/07/24 04:07:02;;;;;;;37.15;27.83;;;23.50;86.30;;;;;;4975019;28;20023;-83
2023/07/24 04:09:28;;;;;;;31.00;27.40;;;23.60;86.30;;;;;;4974986;28;20096;-83
2023/07/24 04:11:54;;;;;;;37.63;27.67;;;23.50;86.20;;;;;;4974840;28;20481;-83
2023/07/24 04:14:20;;;;;;;29.03;25.90;;;23.60;86.50;;;;;;4975158;28;20031;-83
2023/07/24 04:16:46;;;;;;;35.63;27.03;;;23.60;86.40;;;;;;4975197;28;20525;-83
2023/07/24 04:19:12;;;;;;;39.23;28.50;;;23.60;86.60;;;;;;4946777;29;20027;-83
2023/07/24 04:21:37;;;;;;;42.77;28.77;;;23.60;86.60;;;;;;4957779;28;20027;-83
2023/07/24 04:24:03;;;;;;;34.90;26.27;;;23.60;86.70;;;;;;4965586;28;20022;-83
2023/07/24 04:26:29;;;;;;;35.00;27.73;;;23.60;86.60;;;;;;4974394;28;20077;-83
2023/07/24 04:28:55;;;;;;;33.33;26.53;;;23.60;86.40;;;;;;4974546;28;20294;-83
2023/07/24 04:31:21;;;;;;;36.07;27.83;;;23.70;86.20;;;;;;4974671;28;20030;-83
2023/07/24 04:33:47;;;;;;;36.67;27.80;;;23.70;86.40;;;;;;4975821;28;20038;-83
2023/07/24 04:36:13;;;;;;;41.37;27.90;;;23.70;86.80;;;;;;4975744;28;20089;-83
2023/07/24 04:38:38;;;;;;;34.40;27.20;;;23.70;86.90;;;;;;4974320;28;20074;-83
2023/07/24 04:41:04;;;;;;;36.40;26.73;;;23.80;86.70;;;;;;4974110;28;20039;-83
2023/07/24 04:43:30;;;;;;;34.27;27.03;;;23.80;86.40;;;;;;4975579;28;20035;-83
2023/07/24 04:45:56;;;;;;;31.57;25.97;;;23.90;86.80;;;;;;4975500;28;20026;-83
2023/07/24 04:48:21;;;;;;;33.13;26.37;;;23.90;86.70;;;;;;4974246;28;20037;-83
2023/07/24 04:50:54;;;;;;;31.47;25.60;;;23.90;86.60;;;;;;4975506;28;20027;-83
2023/07/24 04:53:20;;;;;;;35.15;25.27;;;23.90;86.00;;;;;;4974217;28;20039;-83
2023/07/24 04:55:47;;;;;;;32.23;26.07;;;24.00;86.30;;;;;;4974197;28;20030;-85
2023/07/24 04:58:13;;;;;;;31.25;24.00;;;24.00;86.00;;;;;;4974114;28;20031;-84
2023/07/24 05:00:39;;;;;;;28.77;22.50;;;24.00;86.20;;;;;;4958208;28;20039;-83
2023/07/24 05:03:08;;;;;;;32.37;23.50;;;23.90;86.20;;;;;;4954852;28;20027;-83
2023/07/24 05:05:34;;;;;;;27.73;21.88;;;23.90;86.20;;;;;;4954419;28;20086;-83
2023/07/24 05:08:00;;;;;;;30.13;21.70;;;24.00;86.30;;;;;;4954902;29;20023;-82
2023/07/24 05:10:26;;;;;;;30.10;22.30;;;24.00;86.10;;;;;;4955209;29;20118;-82
2023/07/24 05:12:51;;;;;;;32.53;24.10;;;24.00;86.20;;;;;;4955070;29;20034;-82
2023/07/24 05:15:17;;;;;;;32.77;23.97;;;24.00;86.20;;;;;;4971399;28;20598;-82
2023/07/24 05:17:43;;;;;;;31.87;23.33;;;24.10;86.20;;;;;;4955942;28;20027;-82
2023/07/24 05:20:10;;;;;;;29.88;25.27;;;24.10;86.30;;;;;;4971045;28;20059;-82
2023/07/24 05:22:36;;;;;;;32.05;22.73;;;24.10;86.30;;;;;;4970833;28;20110;-82
2023/07/24 05:25:01;;;;;;;30.57;23.77;;;24.10;86.30;;;;;;4970886;28;20122;-82
2023/07/24 05:27:29;;;;;;;28.27;22.77;;;24.20;86.40;;;;;;4954815;29;20027;-82
2023/07/24 05:29:55;;;;;;;31.40;23.60;;;24.20;86.40;;;;;;4959541;28;20048;-82
2023/07/24 05:32:21;;;;;;;29.03;22.50;;;24.30;86.30;;;;;;4970856;28;20046;-86
2023/07/24 05:34:47;;;;;;;28.00;24.03;;;24.30;86.30;;;;;;4959051;28;20264;-88
2023/07/24 05:37:13;;;;;;;27.60;21.90;;;24.30;86.00;;;;;;4951349;29;20123;-81
2023/07/24 05:39:38;;;;;;;24.57;19.90;;;24.30;86.20;;;;;;5022355;23;20047;-83
2023/07/24 05:42:04;;;;;;;30.13;21.63;;;24.30;86.50;;;;;;4989952;28;20089;-85
2023/07/24 05:44:30;;;;;;;27.93;22.13;;;24.30;86.40;;;;;;4974075;28;20027;-85
2023/07/24 05:46:56;;;;;;;25.10;20.10;;;24.30;86.40;;;;;;4975699;28;20450;-85
2023/07/24 05:49:22;;;;;;;23.60;20.53;;;24.20;86.50;;;;;;4954622;28;20082;-85
2023/07/24 05:51:48;;;;;;;23.03;19.93;;;24.20;86.70;;;;;;4955806;28;20034;-85
2023/07/24 05:54:13;;;;;;;28.80;20.00;;;24.10;86.50;;;;;;4970072;28;20032;-84
2023/07/24 05:56:39;;;;;;;24.47;20.10;;;24.10;86.80;;;;;;4953836;28;20070;-84
2023/07/24 05:59:05;;;;;;;23.70;20.60;;;24.10;86.70;;;;;;4966437;28;20035;-85
2023/07/24 06:01:31;;;;;;;27.30;20.17;;;24.10;86.70;;;;;;4935413;29;20139;-85
2023/07/24 06:03:57;;;;;;;24.33;19.83;;;24.20;86.60;;;;;;4941631;29;20079;-85
2023/07/24 06:06:22;;;;;;;26.40;20.10;;;24.30;86.40;;;;;;4970099;28;20034;-84
2023/07/24 06:08:48;;;;;;;27.03;20.00;;;24.50;86.20;;;;;;4969937;28;20034;-85
2023/07/24 06:11:14;;;;;;;27.40;19.80;;;24.60;85.90;;;;;;4970167;28;20544;-85
2023/07/24 06:13:40;;;;;;;26.30;20.27;;;24.70;85.50;;;;;;4939179;29;20401;-84
2023/07/24 06:16:07;;;;;;;25.03;19.50;;;24.90;85.00;;;;;;4956422;28;20035;-85
2023/07/24 06:18:34;;;;;;;27.67;18.48;;;25.10;84.80;;;;;;4971779;28;20035;-84
2023/07/24 06:20:59;;;;;;;;;;;25.10;84.50;;;;;;4955782;29;20070;-85
2023/07/24 06:23:25;;;;;;;25.33;18.80;;;25.20;85.00;;;;;;4955233;29;19906;-85
2023/07/24 06:25:52;;;;;;;24.57;18.27;;;25.20;84.70;;;;;;4953673;29;20046;-84
2023/07/24 06:28:18;;;;;;;24.88;19.20;;;25.20;84.50;;;;;;4954318;29;20058;-84
2023/07/24 06:30:44;;;;;;;25.53;19.03;;;25.10;84.80;;;;;;4954299;29;20566;-84
2023/07/24 06:33:10;;;;;;;23.83;20.07;;;25.10;85.00;;;;;;4970656;28;20270;-82
2023/07/24 06:35:36;;;;;;;32.00;22.27;;;25.10;85.30;;;;;;4955022;29;20439;-83
2023/07/24 06:38:02;;;;;;;30.97;20.87;;;25.10;85.50;;;;;;4955187;28;20039;-84
2023/07/24 06:40:28;;;;;;;30.33;20.87;;;25.10;85.60;;;;;;4954857;28;20039;-85
2023/07/24 06:42:54;;;;;;;29.73;21.00;;;25.10;86.10;;;;;;4969435;28;20085;-88
2023/07/24 06:45:19;;;;;;;30.05;19.67;;;25.20;86.30;;;;;;4969490;28;20405;-84
2023/07/24 06:47:45;;;;;;;27.37;20.20;;;25.30;86.30;;;;;;4953708;29;20119;-83
2023/07/24 06:50:11;;;;;;;34.40;22.60;;;25.40;85.80;;;;;;4954836;29;20066;-83
2023/07/24 06:52:37;;;;;;;25.67;21.20;;;25.50;85.60;;;;;;4955829;29;20030;-80
2023/07/24 06:55:03;;;;;;;27.57;20.03;;;25.60;85.20;;;;;;4970168;28;20078;-80
2023/07/24 06:57:29;;;;;;;21.23;18.52;;;25.70;84.90;;;;;;4970087;28;20051;-80
2023/07/24 06:59:55;;;;;;;27.07;19.53;;;25.80;84.50;;;;;;4953525;29;20031;-80
2023/07/24 07:02:21;;;;;;;24.80;19.43;;;26.00;83.80;;;;;;4954792;29;20079;-80
2023/07/24 07:04:46;;;;;;;26.63;18.23;;;26.10;83.40;;;;;;4969410;28;20027;-80
2023/07/24 07:07:12;;;;;;;24.73;17.53;;;26.10;83.10;;;;;;4937984;29;20476;-80
2023/07/24 07:09:38;;;;;;;21.73;16.57;;;26.10;82.80;;;;;;4956312;29;20497;-80
2023/07/24 07:12:04;;;;;;;24.07;16.10;;;26.10;83.00;;;;;;4970340;28;20027;-80
2023/07/24 07:14:30;;;;;;;26.73;15.98;;;26.20;83.10;;;;;;4970654;28;20035;-80
2023/07/24 07:16:56;;;;;;;23.30;17.13;;;26.20;82.50;;;;;;4954161;29;20406;-80
2023/07/24 07:19:21;;;;;;;21.27;15.43;;;26.20;82.50;;;;;;4956802;29;20477;-80
2023/07/24 07:21:47;;;;;;;25.97;17.33;;;26.20;82.70;;;;;;4956239;29;20035;-80
2023/07/24 07:24:13;;;;;;;27.20;16.37;;;26.30;82.90;;;;;;4970394;28;20039;-81
2023/07/24 07:26:39;;;;;;;28.13;15.87;;;26.50;83.10;;;;;;4954074;29;20023;-83
2023/07/24 07:29:05;;;;;;;21.03;15.13;;;26.60;82.30;;;;;;4955653;29;20397;-81
2023/07/24 07:31:30;;;;;;;20.97;15.10;;;26.70;82.10;;;;;;4955547;28;20086;-81
2023/07/24 07:33:56;;;;;;;23.27;15.93;;;26.80;81.90;;;;;;4955685;29;20027;-81
2023/07/24 07:36:22;;;;;;;20.10;15.63;;;27.00;81.80;;;;;;4957483;29;20024;-82
2023/07/24 07:38:49;;;;;;;21.55;14.68;;;27.10;81.40;;;;;;4956269;28;20052;-82
2023/07/24 07:41:14;;;;;;;20.83;14.70;;;27.10;80.50;;;;;;4956622;29;20038;-82
2023/07/24 07:43:40;;;;;;;19.17;14.17;;;27.10;80.50;;;;;;4955417;29;20023;-82
2023/07/24 07:46:06;;;;;;;21.20;14.77;;;27.00;80.80;;;;;;4956542;29;20027;-81
2023/07/24 07:48:32;;;;;;;26.77;15.37;;;27.00;80.70;;;;;;4970869;28;20023;-81
2023/07/24 07:50:58;;;;;;;19.95;14.40;;;27.00;80.70;;;;;;4955563;28;20027;-82
2023/07/24 07:53:24;;;;;;;17.33;13.53;;;26.90;80.60;;;;;;4954978;29;20122;-81
2023/07/24 07:55:57;;;;;;;21.30;16.00;;;26.90;80.90;;;;;;4956547;29;20027;-81
2023/07/24 07:58:24;;;;;;;20.80;14.02;;;26.90;81.20;;;;;;4958960;28;20062;-82
2023/07/24 08:00:50;;;;;;;21.45;14.65;;;26.90;81.10;;;;;;4957828;29;20094;-81
2023/07/24 08:03:15;;;;;;;21.52;14.85;;;27.00;81.00;;;;;;4957696;29;20042;-81
2023/07/24 08:05:41;;;;;;;21.77;14.57;;;27.10;81.00;;;;;;4957170;29;20043;-81
2023/07/24 08:08:07;;;;;;;19.03;15.83;;;27.20;81.00;;;;;;4958423;28;20027;-81
2023/07/24 08:10:33;;;;;;;22.40;14.97;;;27.20;81.00;;;;;;4973750;28;20520;-81
2023/07/24 08:12:58;;;;;;;23.37;14.67;;;27.30;81.20;;;;;;4958681;29;20035;-82
2023/07/24 08:15:24;;;;;;;18.77;13.97;;;27.40;81.20;;;;;;4957302;29;20398;-87
2023/07/24 08:17:50;;;;;;;19.53;13.90;;;27.50;81.40;;;;;;4954329;29;20126;-85
2023/07/24 08:20:19;;;;;;;19.27;15.23;;;27.60;81.00;;;;;;4969161;28;20439;-83
2023/07/24 08:22:45;;;;;;;26.20;13.15;;;27.60;80.90;;;;;;4953803;29;20035;-84
2023/07/24 08:25:10;;;;;;;17.47;12.83;;;27.70;81.00;;;;;;4954218;29;20128;-82
2023/07/24 08:27:36;;;;;;;18.07;14.00;;;27.80;80.40;;;;;;4957063;28;20043;-82
2023/07/24 08:30:02;;;;;;;20.23;13.70;;;27.80;80.40;;;;;;4957105;29;20301;-82
2023/07/24 08:32:28;;;;;;;21.75;13.50;;;27.90;80.40;;;;;;4953728;29;20382;-82
2023/07/24 08:34:54;;;;;;;21.97;14.50;;;28.00;80.70;;;;;;4955585;29;20035;-82
2023/07/24 08:37:20;;;;;;;21.57;14.33;;;28.10;80.90;;;;;;4953435;29;20043;-81
2023/07/24 08:39:46;;;;;;;19.47;15.10;;;28.30;81.20;;;;;;4954749;28;20354;-82
2023/07/24 08:42:12;;;;;;;17.97;13.97;;;28.50;80.10;;;;;;4956699;28;20442;-82
2023/07/24 08:44:38;;;;;;;;;;;28.60;79.00;;;;;;4976835;28;20031;-82
2023/07/24 08:47:06;;;;;;;19.08;14.18;;;28.70;78.50;;;;;;4957480;29;19911;-82
2023/07/24 08:49:34;;;;;;;18.88;14.02;;;28.80;78.50;;;;;;4973646;28;20070;-82
2023/07/24 08:52:01;;;;;;;17.63;12.77;;;28.90;78.10;;;;;;4957429;28;20070;-82
2023/07/24 08:54:27;;;;;;;18.75;13.07;;;29.00;78.40;;;;;;4955458;29;20039;-82
2023/07/24 08:56:55;;;;;;;18.13;14.00;;;29.00;78.10;;;;;;4955311;29;20059;-82
2023/07/24 08:59:21;;;;;;;18.35;13.73;;;29.20;77.30;;;;;;4956459;28;20042;-82
2023/07/24 09:01:46;;;;;;;17.17;13.55;;;29.30;77.00;;;;;;4955136;29;20043;-82
2023/07/24 09:04:12;;;;;;;19.50;14.73;;;29.50;76.70;;;;;;4971190;28;20027;-82
2023/07/24 09:06:38;;;;;;;21.00;14.48;;;29.70;75.90;;;;;;4956536;28;20038;-82
2023/07/24 09:09:13;;;;;;;19.40;14.40;;;29.80;75.60;;;;;;4956408;28;20106;-82
2023/07/24 09:11:55;;;;;;;20.58;15.70;;;29.90;74.70;;;;;;4954822;29;20038;-82
2023/07/24 09:14:30;;;;;;;21.17;13.88;;;29.90;73.90;;;;;;4955590;29;20062;-82
2023/07/24 09:17:07;;;;;;;21.92;15.25;;;29.90;73.90;;;;;;4956187;28;20035;-81
2023/07/24 09:19:33;;;;;;;23.77;14.75;;;29.90;73.80;;;;;;4954898;29;20038;-82
2023/07/24 09:22:13;;;;;;;21.85;15.45;;;29.70;74.40;;;;;;4955833;28;20418;-82
2023/07/24 09:24:58;;;;;;;22.00;14.75;;;29.60;73.80;;;;;;4955788;28;20042;-82
2023/07/24 09:27:26;;;;;;;24.20;15.15;;;29.50;73.60;;;;;;4956091;29;20381;-82
2023/07/24 09:29:52;;;;;;;16.05;14.35;;;29.40;74.90;;;;;;4955838;28;20469;-82
2023/07/24 09:32:25;;;;;;;21.37;15.53;;;29.40;75.90;;;;;;4955791;29;20055;-82
2023/07/24 09:34:53;;;;;;;22.77;14.77;;;29.50;77.30;;;;;;4970990;28;20270;-82
2023/07/24 09:37:30;;;;;;;20.50;14.32;;;29.60;78.20;;;;;;4955780;28;20028;-82
2023/07/24 09:39:57;;;;;;;22.42;14.90;;;29.70;79.10;;;;;;4970769;28;20525;-82
2023/07/24 09:42:33;;;;;;;18.67;15.93;;;29.80;77.90;;;;;;4971282;28;20517;-82
2023/07/24 09:45:03;;;;;;;23.88;15.77;;;29.80;76.90;;;;;;4955740;28;20039;-82
2023/07/24 09:47:29;;;;;;;21.38;15.18;;;29.90;77.00;;;;;;4938584;29;20482;-82
2023/07/24 09:49:55;;;;;;;20.67;13.73;;;29.90;76.60;;;;;;4953776;28;20027;-82
2023/07/24 09:52:22;;;;;;;19.92;14.65;;;29.80;76.70;;;;;;4954449;29;20041;-81
2023/07/24 09:54:52;;;;;;;;;;;29.80;77.30;;;;;;4955992;28;20043;-81
2023/07/24 09:57:19;;;;;;;17.80;13.60;;;29.70;77.90;;;;;;4955712;28;19917;-81
2023/07/24 09:59:46;;;;;;;15.25;12.98;;;29.50;77.80;;;;;;4955336;28;20028;-82
2023/07/24 10:02:13;;;;;;;18.88;13.07;;;29.40;77.60;;;;;;4955203;28;20031;-82
2023/07/24 10:04:40;;;;;;;20.23;12.13;;;29.20;78.10;;;;;;4955609;28;20031;-82
2023/07/24 10:07:07;;;;;;;15.15;12.40;;;29.00;78.80;;;;;;4970288;28;20047;-82
2023/07/24 10:09:33;;;;;;;;;;;28.90;79.30;;;;;;4957232;28;20047;-82
2023/07/24 10:12:01;;;;;;;17.27;13.52;;;28.80;80.60;;;;;;4956514;28;19910;-81
2023/07/24 10:14:29;;;;;;;15.70;13.00;;;28.70;80.30;;;;;;4955092;29;20078;-85
2023/07/24 10:16:56;;;;;;;20.35;14.13;;;28.60;80.40;;;;;;4956897;29;20034;-87
2023/07/24 10:19:22;;;;;;;18.38;12.32;;;28.50;81.10;;;;;;4958462;28;20078;-84
2023/07/24 10:21:50;;;;;;;17.93;13.37;;;28.50;81.00;;;;;;4973956;28;20035;-84
2023/07/24 10:24:16;;;;;;;22.05;14.02;;;28.50;80.30;;;;;;4952830;29;20311;-85
2023/07/24 10:26:42;;;;;;;21.27;12.77;;;28.50;81.40;;;;;;4955774;29;20406;-85
2023/07/24 10:29:12;;;;;;;23.42;15.10;;;28.60;81.60;;;;;;4953432;28;20490;-86
2023/07/24 10:31:39;;;;;;;18.98;13.77;;;28.80;81.60;;;;;;4954638;29;20162;-85
2023/07/24 10:34:08;;;;;;;24.75;14.30;;;29.00;81.20;;;;;;4953602;29;20027;-85
2023/07/24 10:36:35;;;;;;;22.48;12.65;;;29.10;80.60;;;;;;4956487;29;20038;-85
2023/07/24 10:39:02;;;;;;;18.27;13.27;;;29.30;79.50;;;;;;4955855;28;20434;-85
2023/07/24 10:41:36;;;;;;;16.80;12.45;;;29.20;79.20;;;;;;4955668;29;20028;-84
2023/07/24 10:44:02;;;;;;;21.02;12.60;;;29.10;79.50;;;;;;4946627;29;20035;-85
2023/07/24 10:46:40;;;;;;;20.05;13.73;;;29.10;79.40;;;;;;4971404;28;20035;-85
2023/07/24 10:49:07;;;;;;;16.40;11.80;;;28.90;78.90;;;;;;4952264;28;20546;-85
2023/07/24 10:51:35;;;;;;;16.27;11.95;;;28.80;80.50;;;;;;4940720;29;20031;-87
2023/07/24 10:54:02;;;;;;;17.65;12.10;;;28.80;79.80;;;;;;4936418;29;20024;-86
2023/07/24 10:56:29;;;;;;;16.38;11.90;;;28.90;81.10;;;;;;4946712;28;20063;-86
2023/07/24 10:58:54;;;;;;;19.85;12.10;;;28.90;81.80;;;;;;4981054;28;20062;-85
2023/07/24 11:01:21;;;;;;;16.00;11.25;;;28.90;81.80;;;;;;4953012;28;20549;-86
2023/07/24 11:03:49;;;;;;;20.88;11.60;;;28.90;80.20;;;;;;4952434;29;20406;-86
2023/07/24 11:06:17;;;;;;;15.35;10.65;;;29.00;80.20;;;;;;4952769;29;20031;-86
2023/07/24 11:08:52;;;;;;;20.48;12.85;;;29.10;79.80;;;;;;4953893;28;20474;-86
2023/07/24 11:11:18;;;;;;;16.33;11.35;;;29.30;80.00;;;;;;4952056;29;20031;-84
2023/07/24 11:13:43;;;;;;;18.48;10.95;;;29.40;78.80;;;;;;4936152;29;20062;-85
2023/07/24 11:16:09;;;;;;;17.13;12.13;;;29.50;78.90;;;;;;4935360;29;20035;-86
2023/07/24 11:18:47;;;;;;;17.73;13.20;;;29.60;77.90;;;;;;4933905;29;20035;-86
2023/07/24 11:21:13;;;;;;;56.88;50.67;;;29.70;77.00;;;;;;4962719;28;20082;-84
2023/07/24 11:23:50;;;;;;;25.58;12.02;;;29.80;77.30;;;;;;4952121;29;20445;-84
2023/07/24 11:26:20;;;;;;;18.05;10.75;;;29.80;75.80;;;;;;4956136;29;20458;-83
2023/07/24 11:28:46;;;;;;;18.35;11.68;;;29.80;76.60;;;;;;4961306;28;20043;-82
2023/07/24 11:31:12;;;;;;;17.40;10.68;;;29.70;76.00;;;;;;4961959;28;20031;-82
2023/07/24 11:33:39;;;;;;;20.42;10.80;;;29.70;76.90;;;;;;4958890;28;20027;-82
2023/07/24 11:36:05;;;;;;;14.32;9.70;;;29.80;76.80;;;;;;4960618;28;20423;-82
2023/07/24 11:38:31;;;;;;;12.32;9.52;;;30.00;76.30;;;;;;4974680;28;20736;-83
2023/07/24 11:40:58;;;;;;;18.27;9.60;;;30.20;74.90;;;;;;5013643;23;20513;-83
2023/07/24 11:43:25;;;;;;;16.67;9.63;;;30.40;74.30;;;;;;4976184;28;20106;-83
2023/07/24 11:45:52;;;;;;;19.35;11.55;;;30.50;73.40;;;;;;4975064;28;20039;-83
2023/07/24 11:48:19;;;;;;;13.38;9.27;;;30.80;72.60;;;;;;4976167;28;20042;-83
2023/07/24 11:50:47;;;;;;;13.77;10.32;;;30.80;71.50;;;;;;4976170;28;20034;-83
2023/07/24 11:53:22;;;;;;;17.15;9.52;;;30.80;72.00;;;;;;4975816;28;20015;-83
2023/07/24 11:55:49;;;;;;;17.13;9.60;;;30.90;70.30;;;;;;4976056;28;20516;-82
2023/07/24 11:58:16;;;;;;;17.83;10.70;;;31.00;70.80;;;;;;4958460;28;20035;-83
2023/07/24 12:00:42;;;;;;;15.10;9.48;;;31.20;70.00;;;;;;4975801;28;20027;-84
2023/07/24 12:03:09;;;;;;;14.55;10.43;;;31.30;68.70;;;;;;4968708;28;20023;-83
2023/07/24 12:05:39;;;;;;;19.40;10.95;;;31.50;68.60;;;;;;4976369;28;20125;-84
2023/07/24 12:08:05;;;;;;;18.88;10.98;;;31.50;69.10;;;;;;4978172;28;20035;-84
2023/07/24 12:10:31;;;;;;;15.65;9.82;;;31.70;69.00;;;;;;4976414;28;20058;-85
2023/07/24 12:13:00;;;;;;;18.83;10.18;;;32.00;67.60;;;;;;4976006;28;20062;-83
2023/07/24 12:15:26;;;;;;;17.02;10.10;;;32.10;66.00;;;;;;4979362;28;20038;-83
2023/07/24 12:17:53;;;;;;;16.50;9.95;;;32.30;67.20;;;;;;4979530;28;20039;-83
2023/07/24 12:20:19;;;;;;;16.75;11.30;;;32.60;66.70;;;;;;4981071;28;20030;-83
2023/07/24 12:22:44;;;;;;;16.42;9.13;;;32.80;66.50;;;;;;4979611;28;20047;-84
2023/07/24 12:25:10;;;;;;;14.65;10.23;;;32.90;65.90;;;;;;4980533;28;20034;-83
2023/07/24 12:27:38;;;;;;;14.50;10.90;;;32.80;65.80;;;;;;4981577;28;20081;-83